Terminal Aerodrome Forecast
Issued by NWS

Current Version | Previous Version | Text Only | Print | Product List | Glossary On
Versions: 1 2 3 4 5 6 7 8 9 10 11 12 13 14 15 16 17 18 19 20 21 22 23 24
276
FTUS41 KPBZ 121727
TAFDUJ
TAF
KDUJ 121727Z 1218/1318 23012KT P6SM BKN035
     FM122000 25010G20KT 5SM -SN BKN035
     FM130000 30015G25KT 2SM -SHSN OVC015
      TEMPO 1300/1304 1/2SM SHSN OVC005
     FM130900 30010G20KT 4SM -SHSN BKN015=

USA.gov is the U.S. government's official web portal to all federal, state and local government web resources and services.